Time;durP1;ratioP1;P1;durP2;ratioP2;P2;SDS_P1;SDS_P2;PMS_P1;PMS_P2;Temp;Humidity;BMP_temperature;BMP_pressure;BME280_temperature;BME280_humidity;BME280_pressure;Samples;Min_cycle;Max_cycle;Signal;HPM_P1;HPM_P2
2022/07/14 00:02:25;;;;;;;1.07;0.78;;;;;;;19.56;58.05;96673.06;1715973;83;21003;-84
2022/07/14 00:04:50;;;;;;;1.30;0.82;;;;;;;19.55;57.77;96673.58;1716022;82;20984;-84
2022/07/14 00:07:16;;;;;;;2.77;0.93;;;;;;;19.54;57.63;96675.10;1715885;82;20947;-85
2022/07/14 00:09:42;;;;;;;2.00;0.98;;;;;;;19.53;57.64;96670.34;1715952;84;21017;-84
2022/07/14 00:12:08;;;;;;;3.25;0.85;;;;;;;19.52;57.64;96666.08;1711572;82;20954;-84
2022/07/14 00:14:33;;;;;;;1.87;0.82;;;;;;;19.49;57.50;96671.30;1715952;84;20962;-84
2022/07/14 00:16:59;;;;;;;1.98;1.00;;;;;;;19.49;57.41;96667.86;1702789;82;21031;-84
2022/07/14 00:19:25;;;;;;;1.02;0.80;;;;;;;19.47;57.50;96664.66;1688984;82;22093;-84
2022/07/14 00:21:51;;;;;;;0.90;0.70;;;;;;;19.47;57.11;96660.70;1714209;82;21422;-82
2022/07/14 00:24:16;;;;;;;1.10;0.70;;;;;;;19.49;56.75;96661.28;1715341;82;21387;-85
2022/07/14 00:26:42;;;;;;;1.30;0.80;;;;;;;19.50;57.21;96663.68;1691212;82;21436;-84
2022/07/14 00:29:08;;;;;;;1.20;1.00;;;;;;;19.48;57.12;96661.00;1703417;84;21349;-84
2022/07/14 00:31:34;;;;;;;1.72;0.62;;;;;;;19.49;57.44;96664.71;1670634;83;21051;-84
2022/07/14 00:34:00;;;;;;;4.80;1.10;;;;;;;19.49;57.24;96665.23;1669804;83;21015;-81
2022/07/14 00:36:27;;;;;;;1.00;0.62;;;;;;;19.53;56.50;96665.08;1691544;83;21019;-82
2022/07/14 00:38:55;;;;;;;1.27;0.88;;;;;;;19.56;57.33;96662.00;1669836;84;21339;-82
2022/07/14 00:41:22;;;;;;;1.55;0.90;;;;;;;19.56;57.02;96656.73;1694297;83;20988;-81
2022/07/14 00:43:48;;;;;;;1.75;0.85;;;;;;;19.58;56.70;96653.86;1697490;84;21019;-81
2022/07/14 00:46:13;;;;;;;1.35;0.90;;;;;;;19.59;57.35;96652.31;1684983;83;21042;-84
2022/07/14 00:48:39;;;;;;;1.12;0.72;;;;;;;19.58;56.90;96652.03;1690186;83;21039;-82
2022/07/14 00:51:05;;;;;;;1.47;0.80;;;;;;;19.66;56.91;96654.81;1685276;83;21516;-82
2022/07/14 00:53:31;;;;;;;1.27;0.80;;;;;;;19.68;56.17;96646.14;1697326;83;21040;-81
2022/07/14 00:55:57;;;;;;;0.88;0.80;;;;;;;19.79;55.07;96651.41;1681611;84;21390;-81
2022/07/14 00:58:23;;;;;;;2.45;1.35;;;;;;;19.87;55.93;96646.81;1681922;83;21378;-81
2022/07/14 01:00:49;;;;;;;2.08;0.78;;;;;;;19.85;56.49;96648.37;1697556;84;20990;-81
2022/07/14 01:03:14;;;;;;;1.82;0.90;;;;;;;19.81;56.60;96646.41;1695977;84;20976;-81
2022/07/14 01:05:41;;;;;;;1.85;0.70;;;;;;;19.73;56.88;96645.75;1675348;84;20932;-81
2022/07/14 01:08:06;;;;;;;1.95;0.80;;;;;;;19.72;56.87;96648.11;1697898;84;20979;-81
2022/07/14 01:10:32;;;;;;;1.27;0.80;;;;;;;19.74;56.38;96647.87;1697420;83;20940;-84
2022/07/14 01:13:01;;;;;;;0.93;0.72;;;;;;;19.79;56.14;96643.49;1697732;84;20951;-85
2022/07/14 01:15:27;;;;;;;1.30;1.00;;;;;;;19.88;55.40;96636.03;1696725;83;21104;-84
2022/07/14 01:17:52;;;;;;;2.65;1.00;;;;;;;19.93;54.26;96634.00;1710139;83;20973;-85
2022/07/14 01:20:18;;;;;;;1.85;0.93;;;;;;;20.02;55.45;96629.97;1675369;83;20948;-84
2022/07/14 01:22:46;;;;;;;2.47;0.98;;;;;;;20.06;55.31;96625.81;1684431;84;20960;-81
2022/07/14 01:25:18;;;;;;;4.00;0.80;;;;;;;20.08;56.30;96629.02;1689907;83;21412;-81
2022/07/14 01:27:44;;;;;;;;;;;;;;;20.04;56.36;96625.26;1669939;83;21032;-82
2022/07/14 01:30:10;;;;;;;1.55;0.70;;;;;;;20.01;56.55;96618.63;1670835;83;20403;-81
2022/07/14 01:32:36;;;;;;;0.90;0.70;;;;;;;19.97;56.58;96621.42;1679675;83;20978;-81
2022/07/14 01:35:05;;;;;;;1.30;0.78;;;;;;;19.94;56.20;96625.86;1685817;84;21071;-84
2022/07/14 01:37:31;;;;;;;1.20;0.80;;;;;;;19.93;56.33;96623.45;1677680;83;21312;-83
2022/07/14 01:39:57;;;;;;;2.25;0.90;;;;;;;20.00;56.25;96621.47;1651850;84;20963;-84
2022/07/14 01:42:23;;;;;;;0.90;0.70;;;;;;;20.06;53.88;96615.27;1697679;84;21027;-81
2022/07/14 01:44:49;;;;;;;1.02;0.70;;;;;;;20.15;55.89;96624.39;1697209;83;21048;-81
2022/07/14 01:47:15;;;;;;;1.98;0.80;;;;;;;20.15;55.92;96620.95;1684746;83;21023;-81
2022/07/14 01:49:41;;;;;;;2.35;0.88;;;;;;;20.11;56.68;96621.95;1690446;83;21076;-81
2022/07/14 01:52:06;;;;;;;1.40;0.93;;;;;;;20.05;56.24;96619.74;1697592;83;21027;-81
2022/07/14 01:54:33;;;;;;;2.15;0.80;;;;;;;20.05;54.92;96617.63;1697521;84;21000;-81
2022/07/14 01:56:59;;;;;;;1.62;0.65;;;;;;;20.06;55.77;96614.75;1673209;83;20970;-84
2022/07/14 01:59:25;;;;;;;3.98;1.10;;;;;;;20.04;56.35;96610.23;1691359;83;21007;-84
2022/07/14 02:01:51;;;;;;;2.33;1.00;;;;;;;20.07;55.69;96611.59;1697682;83;21007;-83
2022/07/14 02:04:19;;;;;;;1.52;0.90;;;;;;;20.08;55.24;96600.80;1684576;83;21438;-84
2022/07/14 02:06:54;;;;;;;5.12;0.90;;;;;;;20.11;56.31;96604.80;1669865;84;21035;-84
2022/07/14 02:09:20;;;;;;;1.52;0.72;;;;;;;20.08;56.43;96599.48;1679929;83;21012;-84
2022/07/14 02:14:33;;;;;;;1.20;0.72;;;;;;;20.02;56.68;96601.76;1692407;83;21016;-82
2022/07/14 02:16:58;;;;;;;1.17;0.80;;;;;;;20.01;56.97;96600.65;1690020;84;21418;-82
2022/07/14 02:19:24;;;;;;;1.60;1.00;;;;;;;20.01;55.55;96597.52;1695496;83;21095;-81
2022/07/14 02:21:51;;;;;;;3.05;0.88;;;;;;;20.12;56.34;96601.13;1688564;84;20963;-82
2022/07/14 02:24:17;;;;;;;2.05;0.88;;;;;;;20.14;56.42;96599.56;1696115;83;20967;-82
2022/07/14 02:26:43;;;;;;;1.60;1.00;;;;;;;20.12;57.04;96597.69;1679729;83;21366;-82
2022/07/14 02:29:09;;;;;;;1.35;1.22;;;;;;;20.08;55.68;96598.16;1684362;83;21394;-84
2022/07/14 02:31:35;;;;;;;1.57;0.72;;;;;;;20.16;54.88;96596.97;1674930;83;21411;-84
2022/07/14 02:34:01;;;;;;;1.85;0.90;;;;;;;20.24;55.04;96597.92;1694597;83;21046;-81
2022/07/14 02:36:28;;;;;;;1.85;1.00;;;;;;;20.28;55.30;96600.88;1697556;83;21016;-81
2022/07/14 02:38:54;;;;;;;1.25;0.88;;;;;;;20.29;55.44;96601.16;1697674;83;20979;-82
2022/07/14 02:41:19;;;;;;;1.20;0.90;;;;;;;20.27;55.87;96590.84;1693789;83;20962;-83
2022/07/14 02:43:47;;;;;;;1.87;0.88;;;;;;;20.24;55.64;96601.87;1689939;84;21031;-82
2022/07/14 02:46:13;;;;;;;1.50;0.90;;;;;;;20.26;55.52;96600.31;1697109;83;21362;-84
2022/07/14 02:48:39;;;;;;;1.05;0.70;;;;;;;20.26;56.11;96597.68;1673338;83;20986;-83
2022/07/14 02:51:07;;;;;;;1.57;0.82;;;;;;;20.23;56.17;96603.44;1690048;84;20990;-84
2022/07/14 02:53:34;;;;;;;1.10;0.70;;;;;;;20.25;54.34;96607.44;1685159;83;20971;-84
2022/07/14 02:56:04;;;;;;;2.42;1.00;;;;;;;20.32;55.68;96604.64;1688613;84;20920;-84
2022/07/14 02:58:30;;;;;;;1.72;0.80;;;;;;;20.35;55.74;96601.55;1697394;83;21112;-84
2022/07/14 03:00:56;;;;;;;2.72;0.90;;;;;;;20.34;55.00;96601.27;1669650;83;21394;-85
2022/07/14 03:03:22;;;;;;;2.02;0.70;;;;;;;20.33;55.13;96596.48;1686969;84;21349;-84
2022/07/14 03:05:48;;;;;;;4.22;1.25;;;;;;;20.37;54.30;96610.82;1685400;83;20971;-81
2022/07/14 03:08:13;;;;;;;1.22;0.85;;;;;;;20.50;52.36;96616.35;1697823;84;20968;-81
2022/07/14 03:10:40;;;;;;;3.30;0.70;;;;;;;20.64;52.72;96620.78;1697800;84;21002;-81
2022/07/14 03:13:06;;;;;;;2.40;0.50;;;;;;;20.71;53.19;96616.68;1690974;83;21091;-81
2022/07/14 03:15:32;;;;;;;1.50;0.90;;;;;;;20.76;49.43;96608.83;1669638;83;21505;-83
2022/07/14 03:17:58;;;;;;;0.90;0.70;;;;;;;20.93;50.92;96614.38;1672386;83;20967;-84
2022/07/14 03:20:24;;;;;;;2.12;0.75;;;;;;;20.98;51.13;96614.97;1682983;83;21050;-84
2022/07/14 03:22:49;;;;;;;1.77;0.80;;;;;;;20.98;52.88;96614.45;1681749;84;21070;-85
2022/07/14 03:25:15;;;;;;;3.15;0.85;;;;;;;21.01;51.32;96613.19;1669745;83;21048;-84
2022/07/14 03:27:41;;;;;;;3.40;0.95;;;;;;;21.05;50.54;96617.47;1669446;84;20995;-82
2022/07/14 03:30:08;;;;;;;1.72;0.80;;;;;;;21.10;51.24;96617.53;1678066;83;21447;-82
2022/07/14 03:32:35;;;;;;;1.35;0.95;;;;;;;21.10;52.27;96617.00;1696558;84;21017;-84
2022/07/14 03:35:04;;;;;;;2.65;0.72;;;;;;;21.08;51.10;96620.94;1688577;83;21086;-81
2022/07/14 03:37:30;;;;;;;0.90;0.60;;;;;;;21.05;52.49;96618.27;1693443;84;21010;-81
2022/07/14 03:39:56;;;;;;;2.17;0.80;;;;;;;21.00;52.63;96621.36;1675249;83;21418;-84
2022/07/14 03:42:22;;;;;;;1.47;1.00;;;;;;;20.95;53.23;96617.58;1695072;83;21038;-85
2022/07/14 03:44:48;;;;;;;2.40;0.90;;;;;;;20.93;51.96;96616.22;1667452;83;20998;-84
2022/07/14 03:47:15;;;;;;;2.77;1.07;;;;;;;20.94;52.23;96626.55;1662659;85;20940;-82
2022/07/14 03:49:42;;;;;;;1.75;0.90;;;;;;;20.92;52.68;96626.52;1703253;83;20987;-84
2022/07/14 03:52:07;;;;;;;1.20;0.70;;;;;;;20.90;53.58;96630.72;1683153;83;20977;-84
2022/07/14 03:54:33;;;;;;;1.12;0.75;;;;;;;20.85;54.55;96622.73;1693327;83;21429;-84
2022/07/14 03:56:59;;;;;;;1.77;0.80;;;;;;;20.76;53.52;96625.47;1693095;84;20935;-84
2022/07/14 03:59:25;;;;;;;1.70;1.10;;;;;;;20.76;52.93;96619.39;1703269;83;21086;-83
2022/07/14 04:01:50;;;;;;;2.27;0.95;;;;;;;20.76;54.54;96621.52;1703044;83;20975;-81
2022/07/14 04:04:17;;;;;;;2.02;1.10;;;;;;;20.73;54.15;96636.52;1702866;83;21048;-81
2022/07/14 04:06:43;;;;;;;1.57;0.75;;;;;;;20.72;54.68;96632.80;1693631;84;20988;-81
2022/07/14 04:09:09;;;;;;;1.40;1.00;;;;;;;20.70;54.24;96631.72;1675281;83;20971;-81
2022/07/14 04:11:35;;;;;;;1.90;1.02;;;;;;;20.65;55.46;96629.78;1695437;83;20986;-81
2022/07/14 04:14:01;;;;;;;3.37;0.70;;;;;;;20.61;54.75;96630.50;1661153;83;20981;-81
2022/07/14 04:16:27;;;;;;;1.60;0.78;;;;;;;20.58;55.79;96634.95;1642339;85;20952;-85
2022/07/14 04:18:53;;;;;;;2.05;0.93;;;;;;;20.53;55.49;96636.19;1675318;83;20964;-84
2022/07/14 04:21:18;;;;;;;2.50;1.10;;;;;;;20.49;56.23;96629.77;1697468;84;21382;-84
2022/07/14 04:23:44;;;;;;;0.95;0.70;;;;;;;20.45;57.11;96628.64;1677009;83;20963;-85
2022/07/14 04:26:10;;;;;;;2.22;1.00;;;;;;;20.37;57.28;96629.30;1682265;83;21047;-82
2022/07/14 04:28:36;;;;;;;1.17;0.88;;;;;;;20.34;55.14;96626.34;1684803;84;21004;-84
2022/07/14 04:31:02;;;;;;;3.12;1.07;;;;;;;20.37;56.96;96621.89;1673341;83;21119;-84
2022/07/14 04:33:29;;;;;;;1.47;0.70;;;;;;;20.36;57.76;96623.73;1679848;83;20954;-84
2022/07/14 04:35:55;;;;;;;1.77;1.10;;;;;;;20.36;56.27;96626.89;1670033;84;21159;-84
2022/07/14 04:38:21;;;;;;;1.20;0.70;;;;;;;20.39;57.08;96618.50;1678296;84;21410;-84
2022/07/14 04:40:49;;;;;;;1.72;0.78;;;;;;;20.38;58.07;96611.10;1684002;83;20951;-84
2022/07/14 04:43:16;;;;;;;1.87;0.90;;;;;;;20.33;58.69;96604.39;1647648;87;20970;-82
2022/07/14 04:45:42;;;;;;;2.08;0.78;;;;;;;20.29;58.39;96603.28;1645089;86;20983;-82
2022/07/14 04:48:08;;;;;;;1.10;0.80;;;;;;;20.26;59.05;96604.28;1626792;86;21341;-82
2022/07/14 04:53:18;;;;;;;0.90;0.80;;;;;;;20.25;59.33;96604.00;1639091;85;21051;-82
2022/07/14 04:55:43;;;;;;;1.57;0.98;;;;;;;20.26;59.05;96604.28;1635593;85;21015;-84
2022/07/14 04:58:09;;;;;;;1.80;1.00;;;;;;;20.28;57.11;96607.47;1648172;85;20999;-84
2022/07/14 05:00:35;;;;;;;2.12;1.02;;;;;;;20.37;58.63;96599.47;1652239;85;20954;-84
2022/07/14 05:03:01;;;;;;;3.50;1.10;;;;;;;20.42;58.12;96604.05;1685412;83;21031;-85
2022/07/14 05:05:27;;;;;;;2.05;0.90;;;;;;;20.44;58.99;96598.81;1679829;83;20959;-84
2022/07/14 05:07:52;;;;;;;1.77;0.88;;;;;;;20.48;59.88;96601.25;1691779;83;21383;-82
2022/07/14 05:10:18;;;;;;;2.42;1.00;;;;;;;20.53;59.24;96601.36;1678543;83;21386;-82
2022/07/14 05:12:44;;;;;;;1.60;0.98;;;;;;;20.57;59.65;96604.31;1669483;85;20950;-84
2022/07/14 05:15:10;;;;;;;1.52;1.02;;;;;;;20.60;59.60;96605.14;1677642;84;20995;-84
2022/07/14 05:17:35;;;;;;;1.20;0.90;;;;;;;20.63;58.83;96608.63;1668873;84;21068;-81
2022/07/14 05:20:03;;;;;;;1.05;0.82;;;;;;;20.71;59.49;96601.64;1696874;83;21015;-81
2022/07/14 05:22:40;;;;;;;1.32;0.80;;;;;;;20.77;60.51;96603.30;1665196;84;21000;-81
2022/07/14 05:25:11;;;;;;;2.95;0.90;;;;;;;20.82;59.88;96613.14;1697357;83;21047;-81
2022/07/14 05:27:38;;;;;;;1.10;1.00;;;;;;;20.85;61.20;96610.05;1691302;83;21360;-81
2022/07/14 05:30:08;;;;;;;2.02;1.15;;;;;;;20.86;61.58;96614.28;1669944;83;20963;-84
2022/07/14 05:32:36;;;;;;;1.62;1.10;;;;;;;20.86;61.48;96613.76;1699379;82;21022;-84
2022/07/14 05:35:03;;;;;;;1.85;1.00;;;;;;;20.90;61.77;96616.19;1691638;82;20985;-84
2022/07/14 05:37:28;;;;;;;2.20;1.00;;;;;;;20.93;62.14;96617.55;1700243;82;20985;-84
2022/07/14 05:39:55;;;;;;;1.35;0.95;;;;;;;20.96;62.17;96621.02;1736773;82;20986;-84
2022/07/14 05:42:21;;;;;;;1.45;1.12;;;;;;;20.96;62.48;96621.82;1715866;84;21396;-81
2022/07/14 05:44:47;;;;;;;2.33;1.20;;;;;;;20.97;61.89;96629.22;1732481;82;21019;-81
2022/07/14 05:47:13;;;;;;;1.20;0.90;;;;;;;21.00;61.98;96631.92;1719902;82;20963;-81
2022/07/14 05:49:43;;;;;;;3.58;1.30;;;;;;;21.01;62.77;96625.60;1715571;82;21021;-81
2022/07/14 05:52:14;;;;;;;1.30;0.98;;;;;;;20.98;62.26;96626.86;1715887;82;21356;-82
2022/07/14 05:54:40;;;;;;;1.92;0.80;;;;;;;20.98;62.35;96622.38;1715223;83;21081;-81
2022/07/14 05:57:09;;;;;;;1.72;0.90;;;;;;;20.95;60.88;96617.58;1714362;82;21013;-84
2022/07/14 05:59:33;;;;;;;2.37;1.20;;;;;;;20.96;61.68;96618.38;1712887;84;21074;-84
2022/07/14 06:01:59;;;;;;;2.00;1.12;;;;;;;20.93;60.62;96617.55;1715511;82;21080;-84
2022/07/14 06:04:25;;;;;;;1.72;1.27;;;;;;;20.91;60.08;96615.15;1711807;84;20975;-85
2022/07/14 06:06:51;;;;;;;1.42;1.02;;;;;;;20.93;61.51;96618.34;1716207;84;20986;-84
2022/07/14 06:09:17;;;;;;;2.20;1.27;;;;;;;20.91;58.88;96615.15;1715700;82;20951;-84
2022/07/14 06:11:44;;;;;;;2.60;1.07;;;;;;;21.01;60.40;96613.19;1715843;82;20984;-85
2022/07/14 06:14:10;;;;;;;2.08;1.17;;;;;;;21.01;60.24;96611.07;1715863;82;21439;-84
2022/07/14 06:16:36;;;;;;;1.42;1.27;;;;;;;21.02;59.50;96607.39;1695707;82;20999;-81
2022/07/14 06:19:02;;;;;;;2.62;1.30;;;;;;;21.09;58.34;96610.13;1713031;82;20998;-82
2022/07/14 06:21:28;;;;;;;2.15;1.05;;;;;;;21.21;58.56;96606.07;1712505;82;21023;-81
2022/07/14 06:23:54;;;;;;;2.47;1.20;;;;;;;21.29;59.10;96610.95;1697890;82;21012;-85
2022/07/14 06:26:19;;;;;;;3.15;1.20;;;;;;;21.33;59.43;96605.48;1715878;84;21022;-84
2022/07/14 06:28:46;;;;;;;2.20;1.30;;;;;;;21.37;58.83;96607.11;1690348;82;20994;-82
2022/07/14 06:31:13;;;;;;;1.27;1.00;;;;;;;21.43;58.66;96614.05;1687199;82;21417;-82
2022/07/14 06:33:39;;;;;;;1.77;1.15;;;;;;;21.55;58.34;96614.22;1707373;82;21014;-81
2022/07/14 06:36:08;;;;;;;1.35;1.07;;;;;;;21.74;58.56;96612.59;1703888;82;21332;-82
2022/07/14 06:38:33;;;;;;;2.85;1.50;;;;;;;21.95;57.98;96615.73;1715475;82;20965;-84
2022/07/14 06:40:58;;;;;;;3.22;1.12;;;;;;;22.19;56.96;96613.66;1715892;82;21006;-81
2022/07/14 06:43:24;;;;;;;1.55;1.15;;;;;;;22.36;56.34;96621.49;1716055;82;20994;-84
2022/07/14 06:45:50;;;;;;;1.65;1.25;;;;;;;22.51;56.20;96621.64;1715720;84;21374;-84
2022/07/14 06:48:16;;;;;;;2.05;1.40;;;;;;;22.66;54.66;96615.67;1696072;82;20962;-84
2022/07/14 06:50:41;;;;;;;1.77;1.30;;;;;;;22.76;55.28;96619.19;1711649;84;20958;-84
2022/07/14 06:53:09;;;;;;;3.25;1.40;;;;;;;22.84;54.77;96613.20;1692103;82;21010;-81
2022/07/14 06:55:34;;;;;;;1.40;1.20;;;;;;;22.91;54.37;96613.23;1687367;82;21352;-82
2022/07/14 06:58:00;;;;;;;3.17;1.30;;;;;;;23.00;54.37;96613.58;1697446;82;21021;-82
2022/07/14 07:00:26;;;;;;;2.47;1.82;;;;;;;22.99;54.72;96611.98;1688392;82;21029;-82
2022/07/14 07:02:52;;;;;;;2.52;1.50;;;;;;;22.99;54.72;96611.98;1688957;82;21050;-82
2022/07/14 07:08:02;;;;;;;3.08;1.50;;;;;;;23.20;53.09;96615.55;1697894;82;21042;-84
2022/07/14 07:10:29;;;;;;;2.40;1.20;;;;;;;23.29;53.50;96610.05;1696507;84;21337;-84
2022/07/14 07:12:55;;;;;;;1.35;1.17;;;;;;;23.38;53.80;96613.00;1707217;82;20968;-84
2022/07/14 07:15:22;;;;;;;1.75;1.00;;;;;;;23.46;52.69;96616.51;1704056;82;21084;-84
2022/07/14 07:17:48;;;;;;;2.33;1.40;;;;;;;23.50;52.48;96609.09;1710465;82;20977;-84
2022/07/14 07:20:14;;;;;;;1.82;1.20;;;;;;;23.58;51.69;96612.59;1690395;82;20999;-82
2022/07/14 07:22:40;;;;;;;2.33;1.32;;;;;;;23.63;50.36;96614.50;1687388;82;20967;-82
2022/07/14 07:25:06;;;;;;;2.90;1.35;;;;;;;23.67;50.27;96611.59;1697602;82;21440;-81
2022/07/14 07:27:32;;;;;;;4.53;1.98;;;;;;;23.73;51.33;96615.84;1715826;82;21046;-82
2022/07/14 07:30:00;;;;;;;1.30;1.10;;;;;;;23.79;50.96;96614.83;1715842;82;21005;-82
2022/07/14 07:32:27;;;;;;;2.58;1.12;;;;;;;23.84;51.22;96614.84;1704707;83;21085;-81
2022/07/14 07:34:54;;;;;;;2.30;1.47;;;;;;;23.89;51.23;96617.50;1695615;83;21107;-82
2022/07/14 07:37:19;;;;;;;2.05;1.37;;;;;;;23.94;50.94;96615.42;1687748;83;21032;-82
2022/07/14 07:39:45;;;;;;;1.20;1.10;;;;;;;23.97;50.23;96618.88;1677956;83;21086;-82
2022/07/14 07:42:11;;;;;;;1.45;1.12;;;;;;;24.01;50.00;96621.80;1697719;84;21461;-82
2022/07/14 07:44:37;;;;;;;2.00;1.40;;;;;;;24.02;49.67;96625.52;1696421;83;21026;-84
2022/07/14 07:47:03;;;;;;;3.55;1.60;;;;;;;23.98;49.48;96629.75;1681765;84;20984;-85
2022/07/14 07:49:28;;;;;;;2.47;1.40;;;;;;;23.92;49.09;96630.27;1693406;83;20995;-85
2022/07/14 07:52:00;;;;;;;3.00;1.50;;;;;;;23.93;49.12;96633.20;1661326;86;21569;-85
2022/07/14 07:54:27;;;;;;;3.40;1.30;;;;;;;23.98;49.42;96624.98;1675246;83;21071;-84
2022/07/14 07:56:54;;;;;;;2.42;1.45;;;;;;;24.04;49.98;96622.06;1687679;84;21060;-84
2022/07/14 07:59:21;;;;;;;3.12;1.60;;;;;;;24.15;49.38;96622.90;1673770;83;21102;-84
2022/07/14 08:01:47;;;;;;;3.02;1.65;;;;;;;24.22;49.77;96622.11;1657423;84;21066;-84
2022/07/14 08:04:16;;;;;;;2.08;1.40;;;;;;;24.29;49.38;96620.05;1715229;83;21004;-83
2022/07/14 08:06:42;;;;;;;3.50;1.60;;;;;;;24.35;49.32;96620.31;1683318;84;20991;-85
2022/07/14 08:09:11;;;;;;;3.70;1.70;;;;;;;24.39;49.70;96618.72;1683328;83;20933;-85
2022/07/14 08:11:40;;;;;;;1.98;1.35;;;;;;;24.47;50.58;96620.06;1681178;83;21362;-84
2022/07/14 08:14:47;;;;;;;2.55;1.55;;;;;;;24.51;50.05;96621.12;1696896;84;21410;-82
2022/07/14 08:16:35;;;;;;;1.82;1.25;;;;;;;24.55;49.39;96614.22;1686549;83;21037;-81
2022/07/14 08:19:01;;;;;;;2.30;1.50;;;;;;;24.63;50.19;96615.03;1673544;84;20999;-82
2022/07/14 08:21:28;;;;;;;3.58;1.50;;;;;;;24.68;50.25;96620.34;1692157;83;21007;-81
2022/07/14 08:23:53;;;;;;;2.95;1.55;;;;;;;24.73;49.35;96615.55;1674372;84;21024;-85
2022/07/14 08:26:19;;;;;;;4.28;1.98;;;;;;;24.82;49.81;96619.28;1693238;83;21014;-85
2022/07/14 08:28:46;;;;;;;2.45;1.52;;;;;;;24.96;50.24;96620.88;1684925;84;21083;-85
2022/07/14 08:31:12;;;;;;;2.45;1.70;;;;;;;25.06;50.16;96616.92;1689521;83;20980;-82
2022/07/14 08:33:38;;;;;;;4.33;1.87;;;;;;;25.18;50.14;96617.94;1679470;83;21023;-82
2022/07/14 08:36:04;;;;;;;2.35;1.67;;;;;;;25.31;49.23;96616.06;1679493;83;21015;-82
2022/07/14 08:38:30;;;;;;;2.83;1.55;;;;;;;25.37;48.41;96609.66;1684526;84;21091;-85
2022/07/14 08:40:56;;;;;;;2.75;1.52;;;;;;;25.50;49.78;96610.42;1697562;84;21067;-85
2022/07/14 08:43:22;;;;;;;3.80;1.60;;;;;;;25.62;48.98;96609.58;1673550;83;21027;-85
2022/07/14 08:45:48;;;;;;;5.10;1.75;;;;;;;25.75;49.58;96614.09;1674645;83;21045;-85
2022/07/14 08:48:13;;;;;;;3.83;1.80;;;;;;;25.87;49.45;96614.56;1673203;83;21407;-84
2022/07/14 08:50:39;;;;;;;2.12;1.37;;;;;;;25.95;47.45;96607.34;1694526;84;20951;-84
2022/07/14 08:53:05;;;;;;;1.95;1.72;;;;;;;26.05;49.75;96602.52;1669633;83;20990;-82
2022/07/14 08:55:31;;;;;;;1.80;1.60;;;;;;;26.13;49.54;96604.59;1682778;83;21473;-85
2022/07/14 08:57:57;;;;;;;2.00;1.50;;;;;;;26.19;48.59;96605.59;1673556;84;21046;-85
2022/07/14 09:00:23;;;;;;;3.25;1.75;;;;;;;26.35;48.58;96597.01;1669789;83;21423;-85
2022/07/14 09:02:55;;;;;;;3.87;1.62;;;;;;;26.48;48.13;96605.71;1692225;83;21054;-82
2022/07/14 09:05:21;;;;;;;2.62;2.27;;;;;;;26.59;47.85;96605.11;1697739;84;21081;-82
2022/07/14 09:07:49;;;;;;;1.85;1.40;;;;;;;26.64;47.17;96593.08;1678157;83;21429;-84
2022/07/14 09:10:17;;;;;;;2.12;1.50;;;;;;;26.69;46.50;96601.05;1647542;84;21042;-85
2022/07/14 09:12:44;;;;;;;2.92;1.57;;;;;;;26.67;47.16;96595.17;1696604;83;21015;-85
2022/07/14 09:18:04;;;;;;;3.30;1.67;;;;;;;26.73;46.62;96592.74;1659602;85;21049;-84
2022/07/14 09:20:32;;;;;;;3.65;1.65;;;;;;;26.80;46.68;96596.41;1652231;85;21326;-82
2022/07/14 09:23:01;;;;;;;3.67;2.17;;;;;;;26.83;46.19;96595.84;1684259;83;21356;-84
2022/07/14 09:25:29;;;;;;;3.65;2.08;;;;;;;26.84;45.88;96592.89;1669705;83;20968;-84
2022/07/14 09:27:55;;;;;;;2.85;1.95;;;;;;;26.88;46.46;96598.48;1677461;83;20978;-83
2022/07/14 09:30:21;;;;;;;2.35;1.60;;;;;;;26.88;46.60;96598.48;1678064;83;20951;-82
2022/07/14 09:32:59;;;;;;;3.77;1.82;;;;;;;27.01;46.55;96592.53;1707748;84;21010;-85
2022/07/14 09:35:36;;;;;;;2.33;1.62;;;;;;;27.06;45.78;96595.14;1690144;82;20986;-85
2022/07/14 09:38:17;;;;;;;1.98;1.37;;;;;;;27.22;46.72;96583.78;1703642;82;20990;-84
2022/07/14 09:40:43;;;;;;;3.15;2.10;;;;;;;27.43;45.33;96581.68;1713698;82;20995;-85
2022/07/14 09:43:12;;;;;;;2.30;2.02;;;;;;;27.39;46.42;96588.13;1715925;84;20958;-85
2022/07/14 09:45:39;;;;;;;3.22;1.90;;;;;;;27.26;46.02;96587.47;1695379;82;21044;-84
2022/07/14 09:48:14;;;;;;;5.15;1.80;;;;;;;27.35;47.34;96592.45;1695660;84;21050;-84
2022/07/14 09:50:57;;;;;;;2.10;1.90;;;;;;;27.44;46.06;96588.06;1702512;82;21061;-85
2022/07/14 09:53:35;;;;;;;4.30;2.12;;;;;;;27.54;45.44;96585.04;1712262;82;20931;-85
2022/07/14 09:56:05;;;;;;;2.30;1.90;;;;;;;27.66;45.41;96590.77;1716089;84;21046;-85
2022/07/14 09:58:41;;;;;;;2.02;1.72;;;;;;;27.73;44.20;96581.35;1715181;82;21053;-84
2022/07/14 10:01:09;;;;;;;3.85;1.90;;;;;;;27.71;44.95;96583.52;1703722;82;21014;-82
2022/07/14 10:03:37;;;;;;;2.30;1.60;;;;;;;27.68;44.78;96581.97;1687562;82;21078;-82
2022/07/14 10:06:03;;;;;;;2.98;1.90;;;;;;;27.74;44.85;96584.81;1697470;82;21023;-85
2022/07/14 10:08:33;;;;;;;3.83;1.77;;;;;;;27.75;45.31;96577.85;1703198;82;20965;-82
2022/07/14 10:11:00;;;;;;;2.93;1.80;;;;;;;27.69;43.89;96569.66;1715547;84;20997;-84
2022/07/14 10:13:27;;;;;;;3.08;1.77;;;;;;;27.66;44.08;96564.08;1701522;82;21003;-82
2022/07/14 10:15:54;;;;;;;3.12;1.60;;;;;;;27.67;45.17;96559.02;1689831;82;21010;-85
2022/07/14 10:18:21;;;;;;;2.42;1.72;;;;;;;27.70;44.07;96559.78;1715994;84;21353;-85
2022/07/14 10:20:50;;;;;;;4.25;3.50;;;;;;;27.71;44.80;96558.16;1715842;82;20971;-84
2022/07/14 10:23:17;;;;;;;3.92;3.12;;;;;;;27.66;44.67;96562.23;1715892;82;20983;-84
2022/07/14 10:25:50;;;;;;;4.95;2.30;;;;;;;27.61;45.22;96563.58;1715985;84;21042;-85
2022/07/14 10:28:16;;;;;;;2.77;2.20;;;;;;;27.49;45.85;96567.98;1720058;82;20985;-85
2022/07/14 10:31:12;;;;;;;6.15;3.80;;;;;;;27.35;45.62;96566.31;1717572;82;21344;-84
2022/07/14 10:34:05;;;;;;;4.80;2.10;;;;;;;27.24;45.93;96558.95;1676692;84;21029;-84
2022/07/14 10:36:39;;;;;;;3.80;3.42;;;;;;;27.13;45.73;96562.80;1623349;87;20958;-84
2022/07/14 10:39:44;;;;;;;2.83;2.15;;;;;;;27.26;45.29;96547.45;1688815;84;21048;-81
2022/07/14 10:42:21;;;;;;;3.08;2.60;;;;;;;27.37;46.35;96549.48;1621323;86;21024;-85
2022/07/14 10:44:47;;;;;;;3.75;2.10;;;;;;;27.34;46.98;96552.18;1634325;87;21380;-84
2022/07/14 10:47:16;;;;;;;5.92;4.30;;;;;;;27.30;46.56;96547.67;1697177;83;20952;-81
2022/07/14 10:50:09;;;;;;;5.83;5.22;;;;;;;27.35;46.56;96551.64;1696673;83;21406;-81
2022/07/14 10:52:52;;;;;;;4.12;3.42;;;;;;;27.36;47.15;96546.55;1625446;86;20961;-85
2022/07/14 10:55:28;;;;;;;5.28;2.22;;;;;;;27.16;46.32;96541.67;1658526;85;20937;-84
2022/07/14 10:58:09;;;;;;;3.40;2.20;;;;;;;27.20;45.99;96531.26;1651110;85;21006;-84
2022/07/14 11:00:47;;;;;;;2.52;1.87;;;;;;;27.32;46.93;96529.51;1681429;84;21039;-82
2022/07/14 11:03:39;;;;;;;2.00;1.65;;;;;;;27.47;45.53;96531.45;1671884;83;21078;-81
2022/07/14 11:06:12;;;;;;;2.58;1.52;;;;;;;27.66;46.17;96534.20;1679448;84;21055;-81
2022/07/14 11:08:42;;;;;;;2.85;2.02;;;;;;;27.81;46.39;96527.84;1674598;83;21096;-81
2022/07/14 11:11:19;;;;;;;2.45;1.87;;;;;;;27.90;45.85;96515.45;1674530;83;20992;-82
2022/07/14 11:14:07;;;;;;;2.00;1.77;;;;;;;27.83;46.45;96521.70;1669553;84;20980;-82
2022/07/14 11:16:51;;;;;;;3.58;2.08;;;;;;;27.72;46.61;96513.57;1669829;83;20987;-82
2022/07/14 11:19:37;;;;;;;3.58;2.00;;;;;;;27.75;45.07;96513.78;1687028;83;21028;-81
2022/07/14 11:22:19;;;;;;;2.50;1.60;;;;;;;27.93;45.89;96512.73;1669751;84;21382;-85
2022/07/14 11:24:58;;;;;;;2.55;1.75;;;;;;;28.11;45.02;96506.58;1689280;83;20962;-85
2022/07/14 11:27:39;;;;;;;4.55;1.85;;;;;;;28.27;45.10;96505.30;1645227;86;21058;-85
2022/07/14 11:30:24;;;;;;;;;;;;;;;28.43;43.91;96499.70;1627107;86;21062;-85
2022/07/14 11:33:09;;;;;;;2.75;1.92;;;;;;;28.59;43.64;96495.14;1619178;87;20362;-85
2022/07/14 11:38:34;;;;;;;2.85;1.75;;;;;;;28.61;43.83;96488.16;1697351;83;21059;-82
2022/07/14 11:41:02;;;;;;;4.03;2.10;;;;;;;28.48;44.40;96492.41;1697775;83;20976;-85
2022/07/14 11:43:35;;;;;;;3.80;2.27;;;;;;;28.42;43.43;96482.08;1696338;83;21035;-85
2022/07/14 11:46:07;;;;;;;2.47;1.90;;;;;;;28.43;46.86;96480.99;1673240;84;21053;-84
2022/07/14 11:48:35;;;;;;;3.27;1.90;;;;;;;28.48;44.67;96481.72;1693076;84;22137;-84
2022/07/14 11:51:14;;;;;;;2.92;1.98;;;;;;;28.62;44.07;96475.83;1684415;83;21386;-84
2022/07/14 11:53:40;;;;;;;3.40;1.72;;;;;;;28.55;44.60;96474.10;1669857;84;21307;-85